Página principal
METAR-TAF:

METAR-TAF

Aeroportos :

Komakuk Beach, Yukon, Canadá

latitude: 69-37N, longitude: 140-12W, altura: 13 m

Observação actual do tempo

O boletim foi feito há 7 horas e 52 minutos, às 21:00 UTC
Vento 7 kt de oeste, variando entre oes-sudoeste e noroeste
Temperatura 3°C
Humidade 93%
Pressão 1016 hPa

METAR: CWKM 242100Z AUTO 28007KT 240V310 ////SM ////// 03/02 A3000

Hora: 21:52 (04:52 UTC)


TAF: em falta

Observações e previsões do tempo de mais de 4000 aeroportos (mensagens METAR e TAF).

As estações disponíveis são os pontos amarelos e vermelhos sobre o mapa.

Mova o rato sobre o mapa para ver o nome da estação.

Depois clique no ponto para visualizar as observações e previsões meteorológicas.

Para alterar o mapa : clique nos botões verdes com uma cruz preta para aumentar o zoom; no botão verde com uma pitada de zoom; ou nas setas verdes para mapas adjacentes.


METAR-TAF: